createdAt,value
2017-12-13T00:01:00.083Z,11.72
2017-12-13T00:03:28.350Z,12.80
2017-12-13T00:05:56.627Z,11.28
2017-12-13T00:08:24.895Z,11.20
2017-12-13T00:10:53.167Z,11.90
2017-12-13T00:13:21.414Z,11.44
2017-12-13T00:15:49.699Z,11.18
2017-12-13T00:18:17.949Z,12.78
2017-12-13T00:20:46.211Z,11.04
2017-12-13T00:23:14.484Z,10.12
2017-12-13T00:25:42.740Z,9.82
2017-12-13T00:28:11.017Z,10.94
2017-12-13T00:30:39.263Z,12.76
2017-12-13T00:33:07.541Z,10.58
2017-12-13T00:35:35.814Z,11.22
2017-12-13T00:38:04.138Z,10.44
2017-12-13T00:40:32.339Z,9.54
2017-12-13T00:43:00.621Z,10.66
2017-12-13T00:45:29.838Z,10.32
2017-12-13T00:47:58.998Z,11.54
2017-12-13T00:50:28.045Z,9.90
2017-12-13T00:52:56.282Z,10.68
2017-12-13T00:55:24.560Z,10.60
2017-12-13T00:57:52.863Z,9.98
2017-12-13T01:00:21.111Z,9.86
2017-12-13T01:02:49.375Z,9.84
2017-12-13T01:05:17.647Z,10.62
2017-12-13T01:07:45.894Z,10.82
2017-12-13T01:10:14.182Z,9.54
2017-12-13T01:12:42.426Z,9.90
2017-12-13T01:15:10.683Z,9.78
2017-12-13T01:17:38.933Z,9.64
2017-12-13T01:20:07.207Z,9.36
2017-12-13T01:22:35.520Z,9.38
2017-12-13T01:25:03.795Z,9.90
2017-12-13T01:27:32.070Z,9.00
2017-12-13T01:29:59.573Z,9.90
2017-12-13T01:32:29.210Z,10.40
2017-12-13T01:34:57.458Z,9.98
2017-12-13T01:37:25.718Z,10.74
2017-12-13T01:39:53.992Z,10.96
2017-12-13T01:42:22.259Z,10.58
2017-12-13T01:44:50.514Z,10.50
2017-12-13T01:47:18.782Z,9.04
2017-12-13T01:49:47.063Z,10.67
2017-12-13T01:52:15.315Z,11.82
2017-12-13T01:54:43.593Z,11.83
2017-12-13T01:57:11.851Z,11.63
2017-12-13T01:59:40.135Z,9.67
2017-12-13T02:02:08.423Z,10.80
2017-12-13T02:04:36.682Z,9.92
2017-12-13T02:07:04.959Z,11.43
2017-12-13T02:09:33.218Z,10.12
2017-12-13T02:12:01.519Z,11.12
2017-12-13T02:14:30.102Z,11.10
2017-12-13T02:16:58.358Z,10.88
2017-12-13T02:19:26.618Z,11.52
2017-12-13T02:21:54.878Z,11.68
2017-12-13T02:24:23.168Z,9.98
2017-12-13T02:26:53.334Z,11.64
2017-12-13T02:29:21.589Z,9.52
2017-12-13T02:31:49.867Z,10.20
2017-12-13T02:34:18.116Z,9.84
2017-12-13T02:36:45.644Z,9.62
2017-12-13T02:39:13.906Z,10.02
2017-12-13T02:41:42.156Z,10.28
2017-12-13T02:44:10.428Z,10.52
2017-12-13T02:46:38.691Z,10.05
2017-12-13T02:49:06.982Z,10.00
2017-12-13T02:51:35.230Z,10.64
2017-12-13T02:54:03.473Z,10.94
2017-12-13T02:56:31.774Z,11.46
2017-12-13T02:59:00.035Z,10.12
2017-12-13T03:01:28.333Z,11.92
2017-12-13T03:03:56.593Z,12.96
2017-12-13T03:06:24.880Z,13.04
2017-12-13T03:08:53.153Z,12.86
2017-12-13T03:11:21.462Z,11.72
2017-12-13T03:13:49.719Z,12.44
2017-12-13T03:16:17.972Z,11.02
2017-12-13T03:18:46.269Z,11.04
2017-12-13T03:21:14.551Z,11.72
2017-12-13T03:23:42.804Z,11.46
2017-12-13T03:26:11.094Z,13.28
2017-12-13T03:28:39.346Z,11.12
2017-12-13T03:31:07.611Z,12.30
2017-12-13T03:33:35.917Z,11.14
2017-12-13T03:36:04.206Z,12.66
2017-12-13T03:38:32.464Z,14.08
2017-12-13T03:41:00.735Z,12.10
2017-12-13T03:43:30.341Z,11.40
2017-12-13T03:45:59.894Z,12.48
2017-12-13T03:48:28.598Z,13.25
2017-12-13T03:50:56.904Z,11.76
2017-12-13T03:53:25.167Z,10.48
2017-12-13T03:55:53.420Z,12.00
2017-12-13T03:58:21.711Z,12.65
2017-12-13T04:00:49.973Z,10.94
2017-12-13T04:03:18.259Z,13.12
2017-12-13T04:05:46.510Z,11.52
2017-12-13T04:08:14.786Z,12.72
2017-12-13T04:10:43.483Z,12.54
2017-12-13T04:13:11.776Z,13.64
2017-12-13T04:15:40.027Z,10.70
2017-12-13T04:18:08.289Z,10.48
2017-12-13T04:20:36.576Z,11.02
2017-12-13T04:23:04.825Z,10.12
2017-12-13T04:25:33.106Z,10.34
2017-12-13T04:28:01.365Z,10.70
2017-12-13T04:30:29.660Z,9.76
2017-12-13T04:32:59.243Z,10.24
2017-12-13T04:35:28.770Z,10.36
2017-12-13T04:37:58.649Z,9.92
2017-12-13T04:40:26.939Z,9.88
2017-12-13T04:42:55.218Z,9.54
2017-12-13T04:45:23.477Z,9.72
2017-12-13T04:47:51.758Z,9.00
2017-12-13T04:50:20.003Z,9.76
2017-12-13T04:52:48.258Z,10.24
2017-12-13T04:55:16.555Z,10.18
2017-12-13T04:57:44.834Z,10.90
2017-12-13T05:00:13.113Z,8.78
2017-12-13T05:02:41.386Z,8.70
2017-12-13T05:05:09.669Z,9.88
2017-12-13T05:07:37.929Z,7.96
2017-12-13T05:10:06.208Z,8.22
2017-12-13T05:12:34.497Z,9.15
2017-12-13T05:15:02.759Z,8.45
2017-12-13T05:17:31.059Z,9.07
2017-12-13T05:20:05.857Z,9.26
2017-12-13T05:22:34.145Z,9.20
2017-12-13T05:25:02.400Z,8.76
2017-12-13T05:27:30.666Z,8.18
2017-12-13T05:30:00.363Z,8.20
2017-12-13T05:32:29.766Z,9.02
2017-12-13T05:34:59.055Z,8.18
2017-12-13T05:37:28.013Z,9.12
2017-12-13T05:39:56.317Z,8.36
2017-12-13T05:42:24.567Z,8.32
2017-12-13T05:44:52.816Z,8.86
2017-12-13T05:47:21.094Z,7.86
2017-12-13T05:49:49.371Z,7.40
2017-12-13T05:52:17.619Z,8.12
2017-12-13T05:54:45.893Z,8.66
2017-12-13T05:57:14.180Z,7.38
2017-12-13T05:59:42.434Z,8.34
2017-12-13T06:02:10.718Z,7.38
2017-12-13T06:04:38.997Z,8.28
2017-12-13T06:07:07.247Z,7.52
2017-12-13T06:09:35.522Z,8.78
2017-12-13T06:12:03.794Z,7.92
2017-12-13T06:14:32.390Z,7.68
2017-12-13T06:17:00.670Z,8.88
2017-12-13T06:19:29.797Z,8.18
2017-12-13T06:21:59.072Z,7.00
2017-12-13T06:24:27.346Z,8.28
2017-12-13T06:26:55.594Z,8.18
2017-12-13T06:29:23.870Z,7.44
2017-12-13T06:31:52.126Z,7.76
2017-12-13T06:34:20.407Z,7.80
2017-12-13T06:36:47.887Z,9.20
2017-12-13T06:39:16.167Z,8.28
2017-12-13T06:41:44.433Z,8.20
2017-12-13T06:44:12.711Z,8.90
2017-12-13T06:46:40.210Z,8.04
2017-12-13T06:49:08.518Z,8.24
2017-12-13T06:51:36.798Z,7.42
2017-12-13T06:54:05.050Z,8.30
2017-12-13T06:56:33.346Z,7.44
2017-12-13T06:59:01.619Z,8.56
2017-12-13T07:01:29.890Z,7.88
2017-12-13T07:03:58.694Z,7.78
2017-12-13T07:06:27.328Z,7.00
2017-12-13T07:08:55.581Z,9.26
2017-12-13T07:11:23.870Z,8.06
2017-12-13T07:13:52.114Z,7.90
2017-12-13T07:16:20.390Z,7.68
2017-12-13T07:18:48.685Z,6.74
2017-12-13T07:21:16.949Z,8.72
2017-12-13T07:23:45.191Z,7.98
2017-12-13T07:26:13.478Z,7.12
2017-12-13T07:28:41.737Z,6.54
2017-12-13T07:31:10.012Z,7.86
2017-12-13T07:33:38.258Z,7.58
2017-12-13T07:36:06.534Z,7.70
2017-12-13T07:38:34.838Z,6.68
2017-12-13T07:41:08.791Z,6.88
2017-12-13T07:43:37.034Z,6.52
2017-12-13T07:46:05.315Z,7.78
2017-12-13T07:48:33.569Z,7.24
2017-12-13T07:51:01.854Z,7.38
2017-12-13T07:53:30.111Z,7.94
2017-12-13T07:55:58.362Z,7.32
2017-12-13T07:58:26.664Z,7.66
2017-12-13T08:00:54.943Z,7.00
2017-12-13T08:03:23.186Z,6.40
2017-12-13T08:05:51.447Z,7.38
2017-12-13T08:08:18.969Z,6.08
2017-12-13T08:10:47.240Z,5.76
2017-12-13T08:13:14.761Z,6.68
2017-12-13T08:15:43.010Z,5.62
2017-12-13T08:18:11.273Z,5.62
2017-12-13T08:20:39.550Z,7.74
2017-12-13T08:23:07.798Z,6.38
2017-12-13T08:25:36.075Z,5.66
2017-12-13T08:28:04.330Z,6.96
2017-12-13T08:30:32.603Z,6.32
2017-12-13T08:33:11.124Z,6.88
2017-12-13T08:35:39.410Z,6.68
2017-12-13T08:38:08.591Z,6.94
2017-12-13T08:40:36.857Z,6.10
2017-12-13T08:43:05.139Z,6.86
2017-12-13T08:45:33.391Z,6.44
2017-12-13T08:48:01.670Z,6.02
2017-12-13T08:50:29.918Z,6.92
2017-12-13T08:52:59.182Z,6.84
2017-12-13T08:55:27.430Z,5.32
2017-12-13T08:57:55.711Z,5.20
2017-12-13T09:00:23.992Z,6.72
2017-12-13T09:02:52.246Z,6.92
2017-12-13T09:05:20.519Z,6.28
2017-12-13T09:07:48.763Z,6.10
2017-12-13T09:10:17.044Z,5.92
2017-12-13T09:12:45.297Z,6.86
2017-12-13T09:15:13.580Z,5.40
2017-12-13T09:17:41.858Z,6.04
2017-12-13T09:20:15.754Z,5.76
2017-12-13T09:22:44.056Z,6.38
2017-12-13T09:25:12.302Z,6.16
2017-12-13T09:27:40.602Z,5.28
2017-12-13T09:30:08.851Z,5.40
2017-12-13T09:32:37.125Z,5.10
2017-12-13T09:35:05.402Z,5.56
2017-12-13T09:37:33.674Z,6.30
2017-12-13T09:40:01.926Z,6.10
2017-12-13T09:42:30.227Z,5.62
2017-12-13T09:45:00.001Z,6.86
2017-12-13T09:47:28.680Z,5.32
2017-12-13T09:49:56.950Z,8.76
2017-12-13T09:52:25.194Z,5.64
2017-12-13T09:54:53.481Z,5.34
2017-12-13T09:57:21.730Z,6.72
2017-12-13T09:59:49.981Z,6.28
2017-12-13T10:02:18.268Z,5.86
2017-12-13T10:04:46.547Z,6.60
2017-12-13T10:07:14.805Z,7.04
2017-12-13T10:09:43.091Z,6.88
2017-12-13T10:12:11.347Z,7.22
2017-12-13T10:14:39.622Z,7.26
2017-12-13T10:17:07.898Z,7.54
2017-12-13T10:19:36.137Z,6.96
2017-12-13T10:22:04.419Z,5.96
2017-12-13T10:24:32.685Z,6.32
2017-12-13T10:27:00.959Z,6.92
2017-12-13T10:29:35.218Z,7.30
2017-12-13T10:32:03.524Z,5.94
2017-12-13T10:34:31.778Z,7.36
2017-12-13T10:37:00.033Z,6.10
2017-12-13T10:39:28.314Z,6.34
2017-12-13T10:41:56.563Z,6.74
2017-12-13T10:44:24.807Z,7.78
2017-12-13T10:46:53.117Z,6.14
2017-12-13T10:49:21.364Z,7.28
2017-12-13T10:51:49.619Z,7.22
2017-12-13T10:54:17.898Z,6.20
2017-12-13T10:56:46.169Z,6.40
2017-12-13T10:59:14.466Z,6.56
2017-12-13T11:01:42.746Z,5.62
2017-12-13T11:04:10.990Z,5.34
2017-12-13T11:06:39.234Z,5.16
2017-12-13T11:09:07.534Z,5.90
2017-12-13T11:11:35.784Z,5.38
2017-12-13T11:14:04.059Z,4.64
2017-12-13T11:16:32.317Z,4.90
2017-12-13T11:19:00.590Z,5.70
2017-12-13T11:21:29.698Z,4.84
2017-12-13T11:23:59.131Z,4.54
2017-12-13T11:26:29.306Z,4.60
2017-12-13T11:28:58.610Z,4.26
2017-12-13T11:31:29.794Z,3.84
2017-12-13T11:33:57.303Z,4.30
2017-12-13T11:36:25.543Z,4.22
2017-12-13T11:38:53.830Z,3.58
2017-12-13T11:41:22.111Z,4.02
2017-12-13T11:43:50.391Z,4.00
2017-12-13T11:46:18.657Z,3.42
2017-12-13T11:48:46.927Z,2.88
2017-12-13T11:51:15.197Z,2.86
2017-12-13T11:53:43.492Z,3.12
2017-12-13T11:56:11.730Z,2.74
2017-12-13T11:58:40.011Z,3.10
2017-12-13T12:01:08.266Z,3.88
2017-12-13T12:03:36.542Z,6.58
2017-12-13T12:06:04.833Z,3.34
2017-12-13T12:08:33.114Z,4.06
2017-12-13T12:11:01.370Z,2.58
2017-12-13T12:13:29.615Z,2.72
2017-12-13T12:15:58.571Z,3.30
2017-12-13T12:18:26.838Z,2.50
2017-12-13T12:20:55.126Z,2.38
2017-12-13T12:23:23.370Z,2.36
2017-12-13T12:25:51.659Z,2.56
2017-12-13T12:28:19.150Z,2.32
2017-12-13T12:30:47.397Z,2.26
2017-12-13T12:33:15.679Z,3.00
2017-12-13T12:35:43.933Z,2.22
2017-12-13T12:38:12.252Z,3.32
2017-12-13T12:40:40.506Z,2.64
2017-12-13T12:43:08.768Z,2.46
2017-12-13T12:45:37.046Z,1.62
2017-12-13T12:48:05.426Z,2.18
2017-12-13T12:50:33.670Z,2.46
2017-12-13T12:53:01.910Z,1.92
2017-12-13T12:55:30.196Z,2.16
2017-12-13T12:57:59.495Z,2.00
2017-12-13T13:00:28.291Z,2.38
2017-12-13T13:02:56.531Z,2.70
2017-12-13T13:05:24.814Z,2.04
2017-12-13T13:07:53.054Z,2.42
2017-12-13T13:10:21.302Z,2.68
2017-12-13T13:12:49.574Z,2.02
2017-12-13T13:15:17.837Z,2.90
2017-12-13T13:17:46.118Z,2.20
2017-12-13T13:20:14.395Z,2.92
2017-12-13T13:22:42.649Z,2.52
2017-12-13T13:25:10.893Z,2.62
2017-12-13T13:27:39.179Z,2.84
2017-12-13T13:30:07.484Z,2.92
2017-12-13T13:32:35.781Z,2.60
2017-12-13T13:35:04.070Z,3.00
2017-12-13T13:37:32.337Z,2.18
2017-12-13T13:40:00.618Z,2.38
2017-12-13T13:42:29.726Z,3.22
2017-12-13T13:44:58.820Z,2.64
2017-12-13T13:47:27.828Z,2.92
2017-12-13T13:49:56.084Z,3.16
2017-12-13T13:52:24.407Z,2.46
2017-12-13T13:54:52.740Z,2.60
2017-12-13T13:57:20.987Z,2.34
2017-12-13T13:59:49.231Z,2.50
2017-12-13T14:02:17.514Z,3.48
2017-12-13T14:04:45.801Z,2.46
2017-12-13T14:07:14.090Z,2.50
2017-12-13T14:09:42.334Z,3.08
2017-12-13T14:12:10.597Z,2.92
2017-12-13T14:14:38.915Z,2.36
2017-12-13T14:17:07.215Z,2.70
2017-12-13T14:19:34.768Z,2.98
2017-12-13T14:22:03.011Z,3.76
2017-12-13T14:24:31.299Z,3.08
2017-12-13T14:26:59.996Z,2.40
2017-12-13T14:29:28.284Z,2.76
2017-12-13T14:31:56.596Z,2.70
2017-12-13T14:34:24.926Z,2.82
2017-12-13T14:36:53.212Z,3.20
2017-12-13T14:39:21.526Z,2.82
2017-12-13T14:41:49.776Z,3.22
2017-12-13T14:44:18.035Z,3.52
2017-12-13T14:46:46.315Z,3.14
2017-12-13T14:49:14.645Z,3.78
2017-12-13T14:51:42.902Z,3.06
2017-12-13T14:54:11.162Z,3.50
2017-12-13T14:56:39.453Z,3.28
2017-12-13T14:59:07.749Z,3.20
2017-12-13T15:01:36.040Z,3.24
2017-12-13T15:04:04.294Z,3.60
2017-12-13T15:06:32.620Z,3.68
2017-12-13T15:09:04.138Z,4.20
2017-12-13T15:11:32.501Z,3.44
2017-12-13T15:14:00.820Z,3.42
2017-12-13T15:16:30.205Z,3.80
2017-12-13T15:18:59.260Z,3.80
2017-12-13T15:21:28.595Z,3.38
2017-12-13T15:23:56.869Z,4.20
2017-12-13T15:26:25.220Z,3.98
2017-12-13T15:28:53.495Z,3.80
2017-12-13T15:31:21.781Z,3.36
2017-12-13T15:33:50.031Z,3.58
2017-12-13T15:36:18.320Z,3.44
2017-12-13T15:38:47.839Z,3.30
2017-12-13T15:41:16.119Z,3.08
2017-12-13T15:43:44.408Z,3.76
2017-12-13T15:46:12.741Z,3.82
2017-12-13T15:48:41.032Z,3.38
2017-12-13T15:51:09.294Z,4.28
2017-12-13T15:53:37.571Z,4.00
2017-12-13T15:56:06.159Z,3.96
2017-12-13T15:58:34.436Z,3.20
2017-12-13T16:01:02.729Z,2.80
2017-12-13T16:03:31.052Z,3.50
2017-12-13T16:05:59.349Z,3.42
2017-12-13T16:08:28.735Z,3.40
2017-12-13T16:10:57.002Z,3.88
2017-12-13T16:13:24.587Z,3.70
2017-12-13T16:15:52.853Z,3.48
2017-12-13T16:18:21.111Z,4.20
2017-12-13T16:20:49.442Z,3.04
2017-12-13T16:23:17.728Z,2.92
2017-12-13T16:25:46.016Z,3.22
2017-12-13T16:28:14.344Z,3.34
2017-12-13T16:30:43.060Z,3.26
2017-12-13T16:33:11.393Z,3.36
2017-12-13T16:35:39.753Z,3.30
2017-12-13T16:38:08.072Z,3.68
2017-12-13T16:40:36.385Z,4.16
2017-12-13T16:43:04.722Z,3.60
2017-12-13T16:45:33.023Z,2.94
2017-12-13T16:48:01.304Z,3.18
2017-12-13T16:50:29.593Z,3.48
2017-12-13T16:52:59.190Z,2.84
2017-12-13T16:55:27.711Z,2.60
2017-12-13T16:57:56.000Z,3.46
2017-12-13T17:00:24.283Z,3.38
2017-12-13T17:02:52.571Z,3.92
2017-12-13T17:05:20.900Z,3.54
2017-12-13T17:07:49.193Z,3.70
2017-12-13T17:10:17.488Z,3.82
2017-12-13T17:12:45.811Z,3.80
2017-12-13T17:15:14.058Z,4.10
2017-12-13T17:17:42.355Z,4.16
2017-12-13T17:20:10.649Z,3.22
2017-12-13T17:22:38.952Z,3.44
2017-12-13T17:25:07.260Z,4.20
2017-12-13T17:27:35.611Z,3.32
2017-12-13T17:30:03.910Z,3.40
2017-12-13T17:32:32.218Z,3.40
2017-12-13T17:35:00.564Z,3.50
2017-12-13T17:37:29.803Z,3.18
2017-12-13T17:39:59.010Z,3.52
2017-12-13T17:42:27.891Z,3.42
2017-12-13T17:44:56.212Z,3.26
2017-12-13T17:47:24.555Z,3.18
2017-12-13T17:49:52.871Z,3.54
2017-12-13T17:52:21.205Z,3.62
2017-12-13T17:54:49.451Z,2.90
2017-12-13T17:57:17.756Z,3.28
2017-12-13T17:59:46.019Z,2.96
2017-12-13T18:02:14.284Z,4.00
2017-12-13T18:04:41.833Z,3.14
2017-12-13T18:07:10.164Z,3.78
2017-12-13T18:09:38.467Z,4.58
2017-12-13T18:12:06.810Z,4.22
2017-12-13T18:14:35.103Z,4.18
2017-12-13T18:17:03.392Z,3.58
2017-12-13T18:19:31.688Z,3.96
2017-12-13T18:21:59.982Z,3.92
2017-12-13T18:24:28.681Z,4.36
2017-12-13T18:26:58.265Z,4.10
2017-12-13T18:29:26.552Z,5.78
2017-12-13T18:31:54.855Z,5.64
2017-12-13T18:34:23.181Z,4.34
2017-12-13T18:36:51.518Z,5.46
2017-12-13T18:39:19.787Z,5.08
2017-12-13T18:41:48.043Z,4.96
2017-12-13T18:44:16.403Z,4.72
2017-12-13T18:46:44.675Z,4.72
2017-12-13T18:49:12.969Z,4.70
2017-12-13T18:51:41.313Z,5.42
2017-12-13T18:54:09.622Z,4.96
2017-12-13T18:56:37.965Z,5.26
2017-12-13T18:59:06.279Z,4.70
2017-12-13T19:01:34.576Z,4.94
2017-12-13T19:04:02.893Z,4.56
2017-12-13T19:06:31.238Z,5.36
2017-12-13T19:09:02.857Z,5.76
2017-12-13T19:11:31.143Z,6.10
2017-12-13T19:14:03.000Z,7.34
2017-12-13T19:16:31.359Z,7.58
2017-12-13T19:19:03.193Z,7.78
2017-12-13T19:21:31.526Z,7.82
2017-12-13T19:23:59.882Z,7.54
2017-12-13T19:26:29.002Z,6.82
2017-12-13T19:28:57.332Z,8.30
2017-12-13T19:31:25.683Z,7.66
2017-12-13T19:33:53.986Z,6.18
2017-12-13T19:36:22.308Z,6.62
2017-12-13T19:38:50.636Z,5.20
2017-12-13T19:41:18.883Z,5.42
2017-12-13T19:43:47.183Z,6.02
2017-12-13T19:46:15.509Z,5.76
2017-12-13T19:48:43.813Z,5.48
2017-12-13T19:51:12.150Z,4.54
2017-12-13T19:53:40.403Z,4.94
2017-12-13T19:56:08.827Z,5.38
2017-12-13T19:58:37.169Z,5.08
2017-12-13T20:01:05.456Z,4.22
2017-12-13T20:03:33.790Z,4.86
2017-12-13T20:06:02.141Z,4.92
2017-12-13T20:08:29.660Z,4.56
2017-12-13T20:10:58.613Z,4.74
2017-12-13T20:13:26.941Z,5.02
2017-12-13T20:15:55.280Z,4.56
2017-12-13T20:18:23.595Z,4.78
2017-12-13T20:20:51.940Z,5.30
2017-12-13T20:23:20.190Z,5.08
2017-12-13T20:25:48.521Z,5.14
2017-12-13T20:28:16.835Z,4.62
2017-12-13T20:30:45.712Z,4.76
2017-12-13T20:33:14.018Z,4.70
2017-12-13T20:35:42.770Z,5.54
2017-12-13T20:38:11.113Z,5.40
2017-12-13T20:40:39.414Z,5.52
2017-12-13T20:43:07.708Z,4.72
2017-12-13T20:45:36.028Z,4.78
2017-12-13T20:48:03.559Z,5.70
2017-12-13T20:50:31.900Z,5.38
2017-12-13T20:53:00.226Z,4.98
2017-12-13T20:55:29.527Z,4.58
2017-12-13T20:57:58.771Z,5.24
2017-12-13T21:00:28.341Z,5.24
2017-12-13T21:02:56.691Z,5.24
2017-12-13T21:05:24.998Z,6.52
2017-12-13T21:07:53.286Z,5.22
2017-12-13T21:10:21.574Z,4.30
2017-12-13T21:12:49.869Z,4.40
2017-12-13T21:15:18.194Z,4.46
2017-12-13T21:17:46.499Z,3.68
2017-12-13T21:20:14.826Z,3.00
2017-12-13T21:22:43.109Z,2.96
2017-12-13T21:25:11.434Z,2.82
2017-12-13T21:27:39.728Z,1.96
2017-12-13T21:30:08.100Z,2.92
2017-12-13T21:32:36.351Z,3.22
2017-12-13T21:35:04.693Z,2.38
2017-12-13T21:37:33.065Z,2.52
2017-12-13T21:40:01.369Z,2.46
2017-12-13T21:42:29.876Z,2.00
2017-12-13T21:44:58.947Z,2.18
2017-12-13T21:47:26.464Z,2.40
2017-12-13T21:49:54.777Z,2.46
2017-12-13T21:52:23.099Z,2.16
2017-12-13T21:54:51.425Z,2.40
2017-12-13T21:57:19.732Z,2.06
2017-12-13T21:59:48.064Z,2.12
2017-12-13T22:02:16.378Z,2.60
2017-12-13T22:04:44.670Z,2.10
2017-12-13T22:07:13.006Z,2.16
2017-12-13T22:09:41.298Z,2.20
2017-12-13T22:12:09.626Z,2.56
2017-12-13T22:14:37.935Z,2.12
2017-12-13T22:17:06.266Z,2.36
2017-12-13T22:19:34.552Z,2.82
2017-12-13T22:22:02.883Z,2.96
2017-12-13T22:24:31.220Z,2.88
2017-12-13T22:26:59.497Z,3.68
2017-12-13T22:29:29.248Z,3.96
2017-12-13T22:31:58.511Z,3.66
2017-12-13T22:34:26.754Z,4.70
2017-12-13T22:36:55.036Z,5.02
2017-12-13T22:39:23.347Z,4.38
2017-12-13T22:41:51.646Z,4.40
2017-12-13T22:44:19.969Z,5.00
2017-12-13T22:46:48.265Z,5.48
2017-12-13T22:49:16.506Z,4.70
2017-12-13T22:51:44.835Z,5.90
2017-12-13T22:54:13.161Z,5.40
2017-12-13T22:56:41.440Z,5.14
2017-12-13T22:59:09.734Z,5.20
2017-12-13T23:01:38.053Z,5.64
2017-12-13T23:04:06.321Z,6.16
2017-12-13T23:06:34.627Z,5.16
2017-12-13T23:09:02.967Z,5.06
2017-12-13T23:11:31.260Z,6.26
2017-12-13T23:13:59.528Z,4.40
2017-12-13T23:16:27.892Z,5.30
2017-12-13T23:18:56.184Z,5.72
2017-12-13T23:21:24.441Z,4.80
2017-12-13T23:23:52.721Z,4.62
2017-12-13T23:26:21.013Z,4.44
2017-12-13T23:28:49.267Z,3.72
2017-12-13T23:31:17.550Z,4.04
2017-12-13T23:33:45.802Z,3.92
2017-12-13T23:36:14.054Z,4.08
2017-12-13T23:38:42.343Z,4.18
2017-12-13T23:41:10.591Z,3.60
2017-12-13T23:43:38.831Z,4.00
2017-12-13T23:46:07.112Z,4.08
2017-12-13T23:48:35.362Z,4.22
2017-12-13T23:51:03.654Z,4.26
2017-12-13T23:53:34.939Z,3.78
2017-12-13T23:56:03.241Z,3.66
2017-12-13T23:58:30.719Z,3.50
